Time;durP1;ratioP1;P1;durP2;ratioP2;P2;SDS_P1;SDS_P2;PMS_P1;PMS_P2;Temp;Humidity;BMP_temperature;BMP_pressure;BME280_temperature;BME280_humidity;BME280_pressure;Samples;Min_cycle;Max_cycle;Signal;HPM_P1;HPM_P2
2022/01/17 00:01:38;;;;;;;89.70;27.27;;;;;;;3.85;96.46;102606.13;5077226;28;20040;-67
2022/01/17 00:04:06;;;;;;;98.55;30.50;;;;;;;3.99;96.34;102604.72;5093357;28;20453;-66
2022/01/17 00:06:33;;;;;;;104.47;32.35;;;;;;;4.07;95.64;102607.00;5094367;28;20047;-66
2022/01/17 00:09:00;;;;;;;91.55;28.67;;;;;;;3.98;95.73;102605.59;5093487;28;20036;-66
2022/01/17 00:11:26;;;;;;;79.15;25.55;;;;;;;4.09;95.38;102616.50;5094990;28;20059;-66
2022/01/17 00:13:55;;;;;;;92.97;28.27;;;;;;;3.97;95.76;102617.91;5093420;28;20032;-66
2022/01/17 00:16:32;;;;;;;82.03;29.15;;;;;;;4.01;95.47;102618.63;5060172;28;20039;-67
2022/01/17 00:19:30;;;;;;;87.05;27.63;;;;;;;3.91;95.52;102630.41;5093227;28;20040;-66
2022/01/17 00:21:46;;;;;;;84.50;27.67;;;;;;;4.16;94.87;102636.34;5093392;28;20040;-66
2022/01/17 00:24:13;;;;;;;86.40;30.60;;;;;;;4.16;94.73;102651.25;5093367;28;20040;-66
2022/01/17 00:26:40;;;;;;;77.93;28.70;;;;;;;4.25;94.80;102648.22;5094229;28;20044;-66
2022/01/17 00:29:06;;;;;;;85.10;28.95;;;;;;;4.26;94.32;102652.56;5093245;28;20450;-66
2022/01/17 00:31:34;;;;;;;76.82;28.35;;;;;;;4.40;94.54;102654.59;5093305;28;20058;-66
2022/01/17 00:34:00;;;;;;;75.60;26.73;;;;;;;4.29;93.99;102651.56;5092741;28;20098;-67
2022/01/17 00:36:27;;;;;;;77.80;27.08;;;;;;;4.22;93.89;102645.72;5093710;28;20138;-66
2022/01/17 00:38:53;;;;;;;77.10;26.67;;;;;;;4.22;93.74;102661.47;5092809;28;20377;-66
2022/01/17 00:41:20;;;;;;;82.60;26.77;;;;;;;3.97;95.04;102665.16;5092777;28;20063;-66
2022/01/17 00:43:47;;;;;;;79.00;27.35;;;;;;;4.16;95.01;102664.38;5093846;28;20036;-66
2022/01/17 00:46:14;;;;;;;85.45;29.95;;;;;;;4.16;94.99;102677.53;5093135;28;20044;-66
2022/01/17 00:48:40;;;;;;;79.63;27.58;;;;;;;4.37;94.12;102666.09;5093237;28;20047;-66
2022/01/17 00:51:07;;;;;;;79.55;26.63;;;;;;;4.16;94.47;102657.34;5092867;28;20048;-66
2022/01/17 00:53:36;;;;;;;74.50;27.55;;;;;;;4.17;94.97;102655.59;5093021;28;20039;-67
2022/01/17 00:56:05;;;;;;;74.80;27.95;;;;;;;4.27;94.66;102662.16;5092681;28;20040;-66
2022/01/17 00:58:31;;;;;;;84.68;28.98;;;;;;;4.42;94.30;102653.63;5092154;28;20549;-66
2022/01/17 01:00:58;;;;;;;80.32;25.35;;;;;;;4.30;94.20;102651.50;5093883;28;20048;-67
2022/01/17 01:03:25;;;;;;;82.63;28.25;;;;;;;4.35;93.99;102644.28;5091859;28;20047;-67
2022/01/17 01:05:52;;;;;;;75.43;24.92;;;;;;;3.97;94.98;102635.44;5091334;28;20055;-66
2022/01/17 01:08:19;;;;;;;76.93;26.65;;;;;;;4.05;95.29;102649.09;5075794;28;20047;-66
2022/01/17 01:10:45;;;;;;;73.47;27.83;;;;;;;4.17;95.26;102650.34;5094164;28;20044;-66
2022/01/17 01:13:12;;;;;;;81.93;29.23;;;;;;;4.30;94.73;102651.50;5093679;28;20412;-66
2022/01/17 01:19:06;;;;;;;87.97;28.48;;;;;;;4.10;94.93;102683.91;5093482;28;20093;-66
2022/01/17 01:21:20;;;;;;;89.07;29.33;;;;;;;4.12;94.75;102684.69;5093247;28;20101;-66
2022/01/17 01:29:16;;;;;;;85.57;27.02;;;;;;;4.37;94.67;102671.34;5093327;28;20040;-66
2022/01/17 01:31:55;;;;;;;83.32;28.70;;;;;;;4.30;95.22;102664.66;5091668;28;20130;-66
2022/01/17 01:34:32;;;;;;;88.00;28.50;;;;;;;4.10;95.00;102657.63;5093559;28;20066;-66
2022/01/17 01:36:59;;;;;;;84.28;30.50;;;;;;;4.35;94.92;102656.59;5091605;28;20051;-66
2022/01/17 01:39:26;;;;;;;89.07;28.77;;;;;;;4.33;94.72;102654.03;5092557;28;20044;-66
2022/01/17 01:41:52;;;;;;;97.50;28.52;;;;;;;4.48;93.99;102646.38;5093732;28;20055;-66
2022/01/17 01:44:23;;;;;;;89.50;29.77;;;;;;;4.44;94.61;102643.03;5091870;28;20110;-66
2022/01/17 01:46:52;;;;;;;88.95;29.83;;;;;;;4.41;94.68;102651.03;5092808;28;20040;-66
2022/01/17 01:49:20;;;;;;;96.97;30.98;;;;;;;4.31;94.66;102658.50;5092973;28;20043;-66
2022/01/17 01:51:47;;;;;;;95.90;31.25;;;;;;;4.39;94.66;102663.41;5085865;28;20071;-66
2022/01/17 01:54:15;;;;;;;91.72;29.65;;;;;;;4.41;94.55;102661.56;5093173;28;20062;-66
2022/01/17 01:56:45;;;;;;;84.18;29.30;;;;;;;4.51;94.06;102669.88;5092883;28;20036;-66
2022/01/17 01:59:13;;;;;;;99.32;31.40;;;;;;;4.54;94.01;102681.13;5091988;28;20062;-66
2022/01/17 02:01:40;;;;;;;96.80;29.13;;;;;;;4.34;94.42;102700.38;5092805;28;20040;-66
2022/01/17 02:04:07;;;;;;;95.78;30.77;;;;;;;4.43;94.56;102701.75;5089850;28;20661;-66
2022/01/17 02:06:34;;;;;;;91.82;26.95;;;;;;;4.32;95.10;102694.34;5092646;28;20044;-66
2022/01/17 02:09:03;;;;;;;88.47;28.30;;;;;;;4.36;94.93;102684.56;5092902;28;20066;-66
2022/01/17 02:11:32;;;;;;;97.65;28.02;;;;;;;4.40;95.04;102670.34;5092817;28;20043;-66
2022/01/17 02:13:59;;;;;;;91.60;30.35;;;;;;;4.44;94.87;102658.81;5091813;28;20089;-66
2022/01/17 02:16:26;;;;;;;93.65;29.95;;;;;;;4.41;94.46;102657.16;5092265;28;20047;-66
2022/01/17 02:18:53;;;;;;;101.05;31.67;;;;;;;4.40;94.92;102665.09;5092532;28;20041;-66
2022/01/17 02:21:53;;;;;;;111.72;32.58;;;;;;;4.39;94.83;102664.25;5092513;28;20051;-66
2022/01/17 02:24:07;;;;;;;97.68;29.38;;;;;;;4.35;95.00;102664.47;5091886;28;20048;-66
2022/01/17 02:26:34;;;;;;;91.38;30.00;;;;;;;4.44;94.71;102666.69;5091033;28;20552;-66
2022/01/17 02:29:00;;;;;;;98.72;29.00;;;;;;;4.36;95.19;102658.28;5092526;28;20406;-66
2022/01/17 02:31:28;;;;;;;97.32;32.13;;;;;;;4.45;95.24;102660.50;5091521;28;20610;-66
2022/01/17 02:33:55;;;;;;;101.68;31.95;;;;;;;4.36;95.29;102656.50;5092694;28;20043;-66
2022/01/17 02:36:22;;;;;;;100.45;30.52;;;;;;;4.46;94.73;102650.84;5089254;28;20048;-66
2022/01/17 02:38:50;;;;;;;113.93;32.53;;;;;;;4.46;94.85;102649.06;5086336;28;20407;-66
2022/01/17 02:41:17;;;;;;;95.10;30.33;;;;;;;4.43;94.67;102646.56;5088780;28;20113;-66
2022/01/17 02:43:46;;;;;;;108.57;33.53;;;;;;;4.54;94.90;102643.47;5092439;28;20444;-66
2022/01/17 02:48:43;;;;;;;113.88;34.08;;;;;;;4.48;94.72;102662.16;5092343;28;20036;-66
2022/01/17 02:51:11;;;;;;;127.78;35.65;;;;;;;4.41;95.23;102677.31;5091168;28;20408;-66
2022/01/17 02:53:40;;;;;;;107.43;33.17;;;;;;;4.57;94.23;102670.47;5092276;28;20047;-66
2022/01/17 02:56:09;;;;;;;70.95;22.17;;;;;;;4.54;93.90;102662.72;5091008;28;20048;-66
2022/01/17 02:58:38;;;;;;;116.82;34.95;;;;;;;4.68;93.96;102663.91;5090874;28;20407;-66
2022/01/17 03:01:10;;;;;;;126.68;37.20;;;;;;;4.59;93.95;102647.59;5055919;28;20056;-66
2022/01/17 03:03:37;;;;;;;118.20;34.42;;;;;;;4.59;94.21;102644.97;5088421;28;20124;-66
2022/01/17 03:06:04;;;;;;;117.70;35.67;;;;;;;4.54;94.74;102654.00;5091959;28;20032;-66
2022/01/17 03:08:33;;;;;;;130.90;34.88;;;;;;;4.53;94.93;102653.16;5092344;28;20076;-66
2022/01/17 03:11:05;;;;;;;106.18;33.80;;;;;;;4.53;94.61;102645.25;5092187;28;20044;-66
2022/01/17 03:13:35;;;;;;;103.97;29.23;;;;;;;4.37;94.86;102637.19;5092160;28;20119;-66
2022/01/17 03:16:07;;;;;;;115.03;34.28;;;;;;;4.48;95.33;102633.25;5090876;28;20506;-66
2022/01/17 03:18:39;;;;;;;104.20;34.97;;;;;;;4.70;94.20;102636.59;5092451;28;20488;-66
2022/01/17 03:21:08;;;;;;;104.68;35.17;;;;;;;4.58;94.70;102630.13;5091984;28;20080;-66
2022/01/17 03:23:37;;;;;;;107.18;33.75;;;;;;;4.61;94.15;102637.88;5092721;28;20029;-66
2022/01/17 03:26:05;;;;;;;124.10;34.38;;;;;;;4.67;93.71;102647.25;5090620;28;20047;-66
2022/01/17 03:28:32;;;;;;;116.65;35.67;;;;;;;4.59;94.06;102666.00;5092960;28;20051;-67
2022/01/17 03:30:59;;;;;;;113.68;34.83;;;;;;;4.56;94.04;102667.91;5095531;28;20090;-67
2022/01/17 03:33:27;;;;;;;108.00;35.30;;;;;;;4.74;93.71;102659.19;5094016;28;20047;-67
2022/01/17 03:35:55;;;;;;;126.88;34.15;;;;;;;4.64;93.65;102659.69;5090379;28;20075;-66
2022/01/17 03:38:25;;;;;;;110.18;35.03;;;;;;;4.60;94.20;102654.56;5096026;28;20051;-66
2022/01/17 03:40:53;;;;;;;117.40;35.05;;;;;;;4.67;93.72;102657.75;5094177;28;20067;-66
2022/01/17 03:43:22;;;;;;;117.43;35.58;;;;;;;4.50;94.77;102648.00;5095665;28;20062;-66
2022/01/17 03:45:49;;;;;;;113.88;34.53;;;;;;;4.49;94.72;102653.34;5094797;28;20127;-66
2022/01/17 03:48:18;;;;;;;106.43;34.50;;;;;;;4.49;95.35;102663.84;5094376;28;20089;-66
2022/01/17 03:50:45;;;;;;;127.88;36.15;;;;;;;4.63;94.45;102673.75;5095410;28;20569;-67
2022/01/17 03:53:12;;;;;;;100.63;35.35;;;;;;;4.81;93.71;102670.31;5095221;28;20040;-67
2022/01/17 03:55:39;;;;;;;109.30;35.83;;;;;;;4.89;93.07;102670.78;5094921;28;20071;-66
2022/01/17 03:58:07;;;;;;;127.80;35.15;;;;;;;4.81;93.74;102667.69;5095254;28;20044;-67
2022/01/17 04:00:38;;;;;;;108.20;34.38;;;;;;;4.78;93.81;102680.94;5095112;28;20044;-66
2022/01/17 04:03:05;;;;;;;96.55;34.40;;;;;;;4.90;92.88;102674.31;5095178;28;20048;-67
2022/01/17 04:05:32;;;;;;;109.55;35.78;;;;;;;4.80;93.33;102672.09;5093288;28;20044;-67
2022/01/17 04:07:59;;;;;;;93.22;32.22;;;;;;;4.60;93.23;102669.47;5094803;28;20036;-67
2022/01/17 04:10:26;;;;;;;103.07;35.13;;;;;;;4.70;93.82;102680.47;5094185;28;20443;-67
2022/01/17 04:12:55;;;;;;;110.55;35.20;;;;;;;4.84;92.72;102674.56;5094557;28;20128;-66
2022/01/17 04:15:22;;;;;;;95.05;33.75;;;;;;;4.96;92.37;102674.84;5093359;28;20040;-66
2022/01/17 04:17:49;;;;;;;100.30;33.85;;;;;;;4.84;93.20;102680.69;5094712;28;20483;-67
2022/01/17 04:20:25;;;;;;;104.28;35.83;;;;;;;4.83;93.28;102670.25;5094708;28;20052;-67
2022/01/17 04:22:54;;;;;;;94.55;33.33;;;;;;;4.77;93.69;102679.25;5093494;28;20040;-67
2022/01/17 04:25:22;;;;;;;99.93;33.25;;;;;;;4.96;93.20;102685.38;5093627;28;20560;-67
2022/01/17 04:27:50;;;;;;;99.28;33.85;;;;;;;4.84;92.29;102685.06;5093104;28;20048;-67
2022/01/17 04:30:17;;;;;;;100.70;35.13;;;;;;;5.12;91.26;102692.59;5091557;28;20044;-67
2022/01/17 04:32:45;;;;;;;87.93;31.92;;;;;;;5.14;91.63;102698.63;5093245;28;20055;-67
2022/01/17 04:35:14;;;;;;;94.38;34.08;;;;;;;5.04;91.68;102700.84;5088854;28;20040;-67
2022/01/17 04:37:41;;;;;;;87.47;32.00;;;;;;;4.84;92.09;102696.47;5094056;28;20105;-67
2022/01/17 04:40:09;;;;;;;85.70;32.20;;;;;;;4.86;91.60;102709.53;5073416;28;20528;-67
2022/01/17 04:42:43;;;;;;;95.03;34.58;;;;;;;4.68;92.29;102703.34;5088711;28;20040;-66
2022/01/17 04:45:13;;;;;;;92.43;32.53;;;;;;;4.71;92.36;102706.69;5094353;28;20400;-67
2022/01/17 04:47:41;;;;;;;100.32;33.20;;;;;;;4.78;91.74;102707.25;5093926;28;20404;-67
2022/01/17 04:50:21;;;;;;;89.63;31.15;;;;;;;4.80;91.56;102710.66;5093190;28;20105;-67
2022/01/17 04:52:49;;;;;;;89.88;32.00;;;;;;;4.75;92.16;102696.88;5093725;28;20119;-67
2022/01/17 04:55:17;;;;;;;94.70;32.67;;;;;;;4.68;92.42;102705.97;5094118;28;20036;-67
2022/01/17 04:57:45;;;;;;;95.40;32.38;;;;;;;4.87;91.20;102717.34;5093773;28;20085;-67
2022/01/17 05:00:15;;;;;;;87.78;30.15;;;;;;;4.68;91.33;102706.81;5092916;28;20048;-67
2022/01/17 05:02:42;;;;;;;97.45;31.45;;;;;;;4.71;91.11;102709.31;5093027;28;20047;-66
2022/01/17 05:05:12;;;;;;;93.07;30.80;;;;;;;4.69;91.96;102700.63;5057310;28;20062;-67
2022/01/17 05:07:39;;;;;;;86.65;30.67;;;;;;;4.70;91.39;102704.97;5093822;28;20036;-67
2022/01/17 05:10:10;;;;;;;81.45;31.55;;;;;;;4.65;91.50;102717.44;5093851;28;20116;-67
2022/01/17 05:12:37;;;;;;;87.28;31.83;;;;;;;4.70;91.49;102707.59;5092389;28;20432;-67
2022/01/17 05:15:16;;;;;;;92.97;31.20;;;;;;;4.75;90.69;102699.53;5092341;28;20035;-67
2022/01/17 05:17:56;;;;;;;90.07;32.10;;;;;;;4.67;91.11;102699.84;5092524;28;20105;-66
2022/01/17 05:20:23;;;;;;;83.53;29.45;;;;;;;4.82;91.57;102716.72;5092304;28;20139;-67
2022/01/17 05:22:50;;;;;;;80.00;30.10;;;;;;;4.73;91.13;102727.63;5093679;28;20040;-67
2022/01/17 05:25:17;;;;;;;85.35;30.08;;;;;;;4.51;91.27;102715.44;5093458;28;20373;-67
2022/01/17 05:27:45;;;;;;;71.25;27.58;;;;;;;4.56;91.33;102717.84;5075509;28;20471;-67
2022/01/17 05:30:15;;;;;;;79.70;29.30;;;;;;;4.38;91.63;102724.75;5091527;28;20047;-67
2022/01/17 05:32:42;;;;;;;82.97;29.85;;;;;;;4.52;91.72;102729.44;5089845;28;20036;-66
2022/01/17 05:35:10;;;;;;;84.57;31.15;;;;;;;4.43;91.93;102742.03;5089547;28;20036;-67
2022/01/17 05:37:37;;;;;;;97.13;31.00;;;;;;;4.35;92.22;102746.78;5090483;28;20488;-67
2022/01/17 05:40:07;;;;;;;88.28;29.30;;;;;;;4.59;91.74;102742.22;5093095;28;20072;-67
2022/01/17 05:42:34;;;;;;;76.10;28.50;;;;;;;4.66;91.09;102744.59;5093477;28;20070;-67
2022/01/17 05:45:01;;;;;;;91.28;29.80;;;;;;;4.51;91.82;102743.47;5075130;28;20044;-67
2022/01/17 05:47:28;;;;;;;72.75;26.95;;;;;;;4.57;91.59;102751.13;5092759;28;20040;-67
2022/01/17 05:49:55;;;;;;;73.07;26.75;;;;;;;4.63;91.09;102736.84;5091723;28;20062;-67
2022/01/17 05:52:22;;;;;;;82.55;30.15;;;;;;;4.43;91.45;102728.88;5074981;28;20040;-66
2022/01/17 05:54:49;;;;;;;84.28;29.27;;;;;;;4.63;90.79;102723.72;5091376;28;20051;-67
2022/01/17 05:57:17;;;;;;;83.28;28.45;;;;;;;4.69;90.34;102715.53;5091221;28;20036;-66
2022/01/17 05:59:44;;;;;;;71.00;24.98;;;;;;;4.68;90.38;102708.59;5092903;28;20549;-66
2022/01/17 06:02:11;;;;;;;76.05;28.77;;;;;;;4.82;90.90;102714.09;5092717;28;20040;-67
2022/01/17 06:04:37;;;;;;;75.13;26.88;;;;;;;4.74;89.61;102719.69;5088799;28;20040;-67
2022/01/17 06:07:04;;;;;;;72.95;27.70;;;;;;;4.79;89.84;102728.22;5091483;28;20085;-67
2022/01/17 06:09:31;;;;;;;73.15;27.00;;;;;;;4.61;90.17;102726.41;5091495;28;20105;-67
2022/01/17 06:11:58;;;;;;;71.78;27.02;;;;;;;4.71;89.17;102726.84;5091108;28;20039;-66
2022/01/17 06:14:25;;;;;;;69.00;25.73;;;;;;;4.73;89.94;102727.63;5092509;28;20445;-67
2022/01/17 06:16:52;;;;;;;72.13;25.15;;;;;;;4.77;89.36;102724.81;5092835;28;20097;-66
2022/01/17 06:19:19;;;;;;;69.70;27.40;;;;;;;4.72;90.12;102737.28;5092416;28;21049;-67
2022/01/17 06:21:46;;;;;;;70.88;27.35;;;;;;;4.88;89.26;102741.91;5091413;28;20094;-66
2022/01/17 06:24:15;;;;;;;64.32;26.48;;;;;;;4.70;89.42;102733.88;5091201;28;20132;-66
2022/01/17 06:26:43;;;;;;;76.43;26.23;;;;;;;4.80;89.72;102739.59;5091269;28;20051;-66
2022/01/17 06:29:13;;;;;;;65.03;26.55;;;;;;;4.74;89.07;102740.72;5092613;28;20431;-67
2022/01/17 06:31:40;;;;;;;68.10;24.48;;;;;;;4.96;89.32;102740.63;5086877;28;20052;-66
2022/01/17 06:34:08;;;;;;;65.55;24.77;;;;;;;5.11;87.64;102752.25;5087853;28;20039;-67
2022/01/17 06:36:35;;;;;;;65.65;25.05;;;;;;;5.07;88.34;102748.03;5092294;28;20123;-67
2022/01/17 06:39:03;;;;;;;66.78;23.10;;;;;;;4.98;87.91;102740.53;5074352;28;20101;-67
2022/01/17 06:41:31;;;;;;;60.40;24.88;;;;;;;4.91;88.19;102742.63;5089555;28;20113;-67
2022/01/17 06:43:57;;;;;;;59.60;22.98;;;;;;;4.96;88.57;102742.41;5090395;28;20044;-67
2022/01/17 06:46:25;;;;;;;64.63;23.85;;;;;;;4.86;88.19;102730.56;5090519;28;20036;-67
2022/01/17 06:48:52;;;;;;;63.08;23.25;;;;;;;4.88;89.46;102736.63;5091318;28;20036;-67
2022/01/17 06:51:19;;;;;;;64.05;23.33;;;;;;;4.93;88.00;102730.25;5091731;28;20089;-67
2022/01/17 06:53:45;;;;;;;64.82;24.27;;;;;;;4.86;88.46;102730.56;5092289;28;20036;-67
2022/01/17 06:56:12;;;;;;;56.10;22.70;;;;;;;4.83;88.22;102710.53;5092193;28;20074;-66
2022/01/17 06:58:42;;;;;;;62.95;24.10;;;;;;;4.84;88.45;102724.53;5090890;28;20455;-68
2022/01/17 07:01:09;;;;;;;54.83;23.08;;;;;;;4.97;87.65;102746.75;5091012;28;20044;-67
2022/01/17 07:03:37;;;;;;;63.58;22.73;;;;;;;5.11;87.54;102739.09;5091524;28;20074;-67
2022/01/17 07:06:04;;;;;;;57.63;21.90;;;;;;;4.91;87.75;102760.16;5095985;28;20089;-67
2022/01/17 07:08:31;;;;;;;54.40;21.75;;;;;;;5.09;87.94;102766.38;5092781;28;20044;-67
2022/01/17 07:10:58;;;;;;;58.33;22.23;;;;;;;4.93;87.68;102767.06;5096030;28;20040;-67
2022/01/17 07:13:24;;;;;;;57.90;22.83;;;;;;;4.96;87.53;102801.09;5077954;28;20040;-67
2022/01/17 07:15:51;;;;;;;65.18;22.85;;;;;;;4.90;88.28;102785.59;5095873;28;20445;-67
2022/01/17 07:18:18;;;;;;;60.40;22.15;;;;;;;4.88;88.35;102781.34;5094959;28;20040;-67
2022/01/17 07:20:45;;;;;;;64.55;22.17;;;;;;;4.87;87.59;102756.81;5094222;28;20059;-67
2022/01/17 07:23:13;;;;;;;61.80;21.63;;;;;;;4.79;88.59;102745.78;5095703;28;20094;-67
2022/01/17 07:25:40;;;;;;;55.63;21.92;;;;;;;4.67;88.79;102739.28;5094633;28;20047;-67
2022/01/17 07:28:09;;;;;;;62.78;23.48;;;;;;;4.73;88.59;102730.25;5094686;28;20511;-67
2022/01/17 07:30:37;;;;;;;57.35;22.38;;;;;;;4.64;89.42;102720.16;5093018;28;20458;-67
2022/01/17 07:33:06;;;;;;;62.75;23.58;;;;;;;4.61;89.25;102713.25;5070215;28;20040;-67
2022/01/17 07:35:34;;;;;;;59.80;23.10;;;;;;;4.63;89.85;102721.09;5095507;28;20044;-66
2022/01/17 07:38:01;;;;;;;59.78;22.35;;;;;;;4.67;89.40;102723.50;5091900;28;20047;-66
2022/01/17 07:40:27;;;;;;;61.25;22.33;;;;;;;4.54;90.42;102736.31;5072861;28;20094;-67
2022/01/17 07:42:55;;;;;;;54.63;17.98;;;;;;;4.66;89.76;102724.44;5093704;28;20044;-65
2022/01/17 07:45:22;;;;;;;60.90;22.23;;;;;;;4.80;89.13;102731.69;5091350;28;20082;-64
2022/01/17 07:50:28;;;;;;;51.17;21.45;;;;;;;4.75;89.61;102734.53;5104401;27;20874;-67
2022/01/17 07:52:56;;;;;;;68.80;26.35;;;;;;;4.82;89.64;102729.88;5082222;28;20161;-67
2022/01/17 07:55:23;;;;;;;70.47;24.98;;;;;;;4.76;89.27;102728.34;5087881;28;20047;-66
2022/01/17 07:57:50;;;;;;;75.80;25.85;;;;;;;4.69;89.72;102729.53;5084554;28;20044;-66
2022/01/17 08:00:22;;;;;;;72.70;25.38;;;;;;;4.79;89.01;102737.91;5084732;28;20097;-66
2022/01/17 08:03:02;;;;;;;71.05;26.35;;;;;;;5.02;88.91;102750.03;5123297;27;20644;-67
2022/01/17 08:05:29;;;;;;;64.40;24.52;;;;;;;5.07;88.40;102747.19;5116385;28;20120;-66
2022/01/17 08:07:56;;;;;;;73.10;25.20;;;;;;;4.99;88.54;102761.53;5115867;28;20089;-66
2022/01/17 08:10:23;;;;;;;69.53;25.60;;;;;;;4.94;87.89;102770.56;5119353;27;20043;-67
2022/01/17 08:12:49;;;;;;;73.53;25.20;;;;;;;5.03;88.52;102782.44;5113208;28;20044;-67
2022/01/17 08:15:16;;;;;;;73.93;27.05;;;;;;;5.06;88.09;102796.31;5109858;28;20063;-66
2022/01/17 08:17:45;;;;;;;69.18;26.70;;;;;;;5.09;88.43;102790.91;5100831;28;20035;-67
2022/01/17 08:20:12;;;;;;;67.93;25.25;;;;;;;5.14;88.34;102795.97;5117903;28;20495;-64
2022/01/17 08:22:39;;;;;;;69.30;25.65;;;;;;;5.10;88.23;102783.88;5113367;28;20032;-65
2022/01/17 08:25:06;;;;;;;67.82;25.45;;;;;;;5.12;88.04;102785.50;5116742;28;20054;-65
2022/01/17 08:27:33;;;;;;;77.05;27.25;;;;;;;5.21;88.25;102791.31;5111416;28;20048;-65
2022/01/17 08:30:00;;;;;;;71.75;26.88;;;;;;;5.23;87.45;102798.19;5111226;28;20050;-65
2022/01/17 08:32:47;;;;;;;73.30;27.00;;;;;;;5.34;86.65;102801.19;5111763;28;20043;-64
2022/01/17 08:35:14;;;;;;;66.55;27.40;;;;;;;5.36;86.76;102803.75;5114538;27;20094;-65
2022/01/17 08:37:40;;;;;;;72.15;25.77;;;;;;;5.22;87.28;102816.66;5110488;28;20044;-65
2022/01/17 08:40:12;;;;;;;70.55;25.08;;;;;;;5.11;88.10;102794.34;5108724;28;20039;-65
2022/01/17 08:42:39;;;;;;;73.93;26.92;;;;;;;5.26;87.59;102791.94;5093078;28;20395;-66
2022/01/17 08:45:10;;;;;;;67.85;26.00;;;;;;;5.27;87.24;102789.22;5111645;28;20487;-66
2022/01/17 08:47:46;;;;;;;70.40;26.35;;;;;;;5.28;87.80;102795.38;5110213;28;20043;-66
2022/01/17 08:50:12;;;;;;;72.35;28.20;;;;;;;5.27;87.94;102794.47;5093502;28;20109;-66
2022/01/17 08:52:39;;;;;;;74.60;25.20;;;;;;;5.29;87.66;102800.53;5109557;28;20039;-66
2022/01/17 08:55:06;;;;;;;68.57;25.98;;;;;;;5.33;88.05;102796.84;5112368;28;20055;-66
2022/01/17 08:57:33;;;;;;;65.30;25.90;;;;;;;5.28;88.49;102792.72;5108853;28;20048;-67
2022/01/17 08:59:59;;;;;;;59.28;24.40;;;;;;;5.24;88.16;102801.66;5109249;28;20043;-66
2022/01/17 09:02:26;;;;;;;75.18;29.85;;;;;;;5.24;88.18;102805.16;5111141;28;20043;-66
2022/01/17 09:04:53;;;;;;;64.25;27.42;;;;;;;5.13;88.15;102800.38;5116303;28;20452;-66
2022/01/17 09:07:20;;;;;;;61.72;24.80;;;;;;;5.01;89.50;102787.78;5117145;27;20047;-66
2022/01/17 09:09:47;;;;;;;65.35;26.80;;;;;;;5.00;89.19;102770.25;5114847;28;20165;-67
2022/01/17 09:12:15;;;;;;;75.45;28.00;;;;;;;5.12;89.16;102782.88;5110263;28;20071;-67
2022/01/17 09:14:42;;;;;;;49.83;21.85;;;;;;;5.07;89.50;102773.50;5103496;28;20050;-67
2022/01/17 09:17:10;;;;;;;77.60;29.10;;;;;;;5.07;89.08;102779.59;5101653;28;20047;-67
2022/01/17 09:19:40;;;;;;;70.88;28.92;;;;;;;5.19;89.63;102796.63;5101851;28;20044;-67
2022/01/17 09:22:08;;;;;;;69.50;26.88;;;;;;;5.15;90.08;102789.81;5097044;28;20040;-66
2022/01/17 09:24:36;;;;;;;68.88;25.90;;;;;;;5.16;89.03;102791.50;5098227;28;20097;-67
2022/01/17 09:27:05;;;;;;;68.75;28.95;;;;;;;5.15;89.03;102816.13;5098360;28;20048;-67
2022/01/17 09:29:33;;;;;;;77.00;30.35;;;;;;;5.28;89.38;102805.88;5098601;28;20043;-67
2022/01/17 09:32:00;;;;;;;87.60;29.30;;;;;;;5.38;88.29;102805.41;5096212;28;20388;-67
2022/01/17 09:34:27;;;;;;;81.63;30.00;;;;;;;5.44;88.57;102813.91;5095248;28;20039;-67
2022/01/17 09:36:54;;;;;;;71.43;30.50;;;;;;;5.52;88.59;102827.59;5098466;27;20438;-67
2022/01/17 09:39:21;;;;;;;76.38;29.17;;;;;;;5.60;87.90;102832.50;5094008;28;20052;-66
2022/01/17 09:41:47;;;;;;;79.07;30.70;;;;;;;5.75;87.01;102845.00;5096975;28;20032;-67
2022/01/17 09:44:14;;;;;;;74.72;30.83;;;;;;;5.63;88.09;102858.72;5094216;28;20048;-67
2022/01/17 09:46:45;;;;;;;78.53;30.38;;;;;;;5.71;87.87;102867.97;5095687;28;20036;-67
2022/01/17 09:49:15;;;;;;;77.32;30.77;;;;;;;5.66;88.11;102867.31;5093470;28;20044;-67
2022/01/17 09:52:05;;;;;;;78.43;29.77;;;;;;;5.64;88.19;102860.41;5094895;28;20389;-67
2022/01/17 09:54:35;;;;;;;78.88;30.33;;;;;;;5.57;89.85;102865.97;5094245;28;20040;-67
2022/01/17 09:57:06;;;;;;;83.90;33.05;;;;;;;5.57;90.21;102871.22;5094829;28;20187;-67
2022/01/17 09:59:49;;;;;;;87.70;33.90;;;;;;;5.80;89.24;102850.03;5025008;28;20348;-68
2022/01/17 10:02:17;;;;;;;86.28;32.50;;;;;;;5.65;89.85;102830.53;4837144;28;20050;-70
2022/01/17 10:04:44;;;;;;;71.70;31.20;;;;;;;5.73;88.86;102859.97;4993669;28;20046;-70
2022/01/17 10:07:10;;;;;;;83.60;31.35;;;;;;;5.74;88.97;102835.38;5011796;28;20108;-68
2022/01/17 10:09:39;;;;;;;76.40;33.20;;;;;;;5.65;88.64;102820.84;5009400;28;20099;-69
2022/01/17 10:12:10;;;;;;;73.10;30.30;;;;;;;5.66;88.94;102856.78;5006713;28;20046;-69
2022/01/17 10:14:43;;;;;;;75.28;31.05;;;;;;;5.68;89.53;102851.47;5003232;28;20379;-70
2022/01/17 10:17:14;;;;;;;76.95;33.20;;;;;;;5.70;89.59;102850.44;5003733;28;20457;-69
2022/01/17 10:19:43;;;;;;;73.53;32.08;;;;;;;5.89;88.88;102849.59;5006452;28;20034;-69
2022/01/17 10:22:17;;;;;;;72.97;30.73;;;;;;;5.80;88.36;102868.47;5010527;28;20075;-69
2022/01/17 10:25:16;;;;;;;72.95;30.55;;;;;;;5.85;88.90;102840.97;5004082;28;20038;-69
2022/01/17 10:28:08;;;;;;;80.30;31.88;;;;;;;5.87;88.66;102868.09;5005710;28;20061;-70
2022/01/17 10:30:41;;;;;;;71.43;31.95;;;;;;;5.93;88.57;102861.69;5008146;28;20070;-68
2022/01/17 10:35:57;;;;;;;68.32;30.73;;;;;;;6.23;86.96;102877.03;5011355;28;20041;-70
2022/01/17 10:38:27;;;;;;;74.20;31.63;;;;;;;6.08;87.41;102873.34;5012094;28;20057;-71
2022/01/17 10:40:57;;;;;;;74.88;32.00;;;;;;;6.20;88.33;102880.63;5003152;28;20046;-71
2022/01/17 10:43:28;;;;;;;72.35;28.70;;;;;;;6.07;87.93;102874.25;5007803;28;20382;-69
2022/01/17 10:45:56;;;;;;;64.88;29.55;;;;;;;6.10;88.32;102877.59;5012381;28;20042;-70
2022/01/17 10:48:34;;;;;;;73.80;30.90;;;;;;;5.94;88.86;102853.72;5003406;28;20126;-69
2022/01/17 10:51:04;;;;;;;70.03;31.50;;;;;;;5.92;89.44;102866.09;4991156;28;20057;-69
2022/01/17 10:53:31;;;;;;;67.03;29.77;;;;;;;5.98;89.37;102864.16;5013042;28;20041;-70
2022/01/17 10:55:59;;;;;;;74.55;33.30;;;;;;;5.73;90.51;102859.97;5044110;27;20039;-69
2022/01/17 10:58:30;;;;;;;70.90;31.30;;;;;;;5.96;89.71;102880.88;5006011;28;20524;-70
2022/01/17 11:01:00;;;;;;;70.20;29.13;;;;;;;6.03;89.97;102875.34;5007549;28;20046;-70
2022/01/17 11:03:29;;;;;;;68.65;31.05;;;;;;;6.01;90.44;102880.66;5007523;28;20074;-70
2022/01/17 11:06:00;;;;;;;78.32;30.90;;;;;;;6.05;90.49;102889.28;5008947;28;20132;-69
2022/01/17 11:08:28;;;;;;;65.07;30.67;;;;;;;6.02;89.79;102898.22;5010607;28;20045;-70
2022/01/17 11:10:57;;;;;;;69.18;30.10;;;;;;;5.98;90.78;102885.22;4998327;28;20054;-69
2022/01/17 11:13:29;;;;;;;70.45;32.20;;;;;;;5.88;91.49;102898.81;4994670;28;20486;-70
2022/01/17 11:15:59;;;;;;;73.20;31.52;;;;;;;5.93;91.25;102893.31;4994577;28;20056;-70
2022/01/17 11:18:29;;;;;;;65.03;28.42;;;;;;;5.90;91.36;102872.38;4998273;28;20066;-70
2022/01/17 11:21:05;;;;;;;63.22;28.20;;;;;;;5.76;91.19;102889.66;5002034;28;20532;-70
2022/01/17 11:23:32;;;;;;;66.88;28.02;;;;;;;5.90;91.90;102882.94;4997551;28;20536;-70
2022/01/17 11:25:59;;;;;;;64.05;30.25;;;;;;;5.96;92.11;102875.59;4992140;28;20107;-70
2022/01/17 11:28:29;;;;;;;68.57;30.23;;;;;;;5.82;92.50;102883.28;5000389;28;20038;-69
2022/01/17 11:31:05;;;;;;;65.32;29.13;;;;;;;6.00;92.57;102873.69;5002393;28;20057;-69
2022/01/17 11:33:33;;;;;;;61.53;26.77;;;;;;;6.13;91.08;102863.41;4976483;28;20125;-70
2022/01/17 11:36:00;;;;;;;68.25;27.65;;;;;;;6.04;91.69;102863.84;4992892;28;20043;-70
2022/01/17 11:38:30;;;;;;;67.47;28.08;;;;;;;5.87;91.77;102860.19;4991033;28;20088;-70
2022/01/17 11:40:59;;;;;;;69.20;28.55;;;;;;;5.99;92.50;102874.63;4995442;28;20034;-70